sensor_id;sensor_type;location;lat;lon;timestamp;temperature;humidity
39325;DHT22;25037;49.488;9.900;2023-02-15T00:01:40;4.50;71.80
39325;DHT22;25037;49.488;9.900;2023-02-15T00:04:09;4.50;71.80
39325;DHT22;25037;49.488;9.900;2023-02-15T00:06:36;4.50;71.80
39325;DHT22;25037;49.488;9.900;2023-02-15T00:09:02;4.50;71.70
39325;DHT22;25037;49.488;9.900;2023-02-15T00:11:29;4.50;71.60
39325;DHT22;25037;49.488;9.900;2023-02-15T00:14:31;4.50;71.60
39325;DHT22;25037;49.488;9.900;2023-02-15T00:16:58;4.50;71.60
39325;DHT22;25037;49.488;9.900;2023-02-15T00:19:26;4.50;71.60
39325;DHT22;25037;49.488;9.900;2023-02-15T00:21:53;4.50;71.60
39325;DHT22;25037;49.488;9.900;2023-02-15T00:24:19;4.50;71.60
39325;DHT22;25037;49.488;9.900;2023-02-15T00:26:47;4.50;71.50
39325;DHT22;25037;49.488;9.900;2023-02-15T00:29:16;4.40;71.50
39325;DHT22;25037;49.488;9.900;2023-02-15T00:31:43;4.40;71.50
39325;DHT22;25037;49.488;9.900;2023-02-15T00:34:24;4.30;71.60
39325;DHT22;25037;49.488;9.900;2023-02-15T00:36:51;4.30;71.70
39325;DHT22;25037;49.488;9.900;2023-02-15T00:39:18;4.30;71.80
39325;DHT22;25037;49.488;9.900;2023-02-15T00:41:46;4.30;71.90
39325;DHT22;25037;49.488;9.900;2023-02-15T00:44:14;4.30;71.90
39325;DHT22;25037;49.488;9.900;2023-02-15T00:46:41;4.40;71.80
39325;DHT22;25037;49.488;9.900;2023-02-15T00:49:08;4.50;71.70
39325;DHT22;25037;49.488;9.900;2023-02-15T00:51:35;4.40;71.50
39325;DHT22;25037;49.488;9.900;2023-02-15T00:54:02;4.40;71.50
39325;DHT22;25037;49.488;9.900;2023-02-15T00:56:29;4.40;71.40
39325;DHT22;25037;49.488;9.900;2023-02-15T00:58:56;4.40;71.40
39325;DHT22;25037;49.488;9.900;2023-02-15T01:01:22;4.30;71.30
39325;DHT22;25037;49.488;9.900;2023-02-15T01:03:50;4.20;71.20
39325;DHT22;25037;49.488;9.900;2023-02-15T01:06:17;4.20;71.30
39325;DHT22;25037;49.488;9.900;2023-02-15T01:08:44;4.10;71.40
39325;DHT22;25037;49.488;9.900;2023-02-15T01:11:18;4.10;71.40
39325;DHT22;25037;49.488;9.900;2023-02-15T01:13:55;4.10;71.40
39325;DHT22;25037;49.488;9.900;2023-02-15T01:16:23;4.10;71.40
39325;DHT22;25037;49.488;9.900;2023-02-15T01:18:50;4.00;71.30
39325;DHT22;25037;49.488;9.900;2023-02-15T01:21:20;4.00;71.30
39325;DHT22;25037;49.488;9.900;2023-02-15T01:23:47;4.00;71.30
39325;DHT22;25037;49.488;9.900;2023-02-15T01:26:15;3.90;71.30
39325;DHT22;25037;49.488;9.900;2023-02-15T01:28:42;3.90;71.40
39325;DHT22;25037;49.488;9.900;2023-02-15T01:31:11;3.90;71.40
39325;DHT22;25037;49.488;9.900;2023-02-15T01:33:38;3.90;71.40
39325;DHT22;25037;49.488;9.900;2023-02-15T01:36:05;3.90;71.40
39325;DHT22;25037;49.488;9.900;2023-02-15T01:38:33;3.90;71.40
39325;DHT22;25037;49.488;9.900;2023-02-15T01:41:00;3.80;71.40
39325;DHT22;25037;49.488;9.900;2023-02-15T01:43:48;3.90;71.40
39325;DHT22;25037;49.488;9.900;2023-02-15T01:46:17;3.80;71.30
39325;DHT22;25037;49.488;9.900;2023-02-15T01:48:52;3.90;71.30
39325;DHT22;25037;49.488;9.900;2023-02-15T01:51:21;3.90;71.30
39325;DHT22;25037;49.488;9.900;2023-02-15T01:53:57;3.80;71.20
39325;DHT22;25037;49.488;9.900;2023-02-15T01:56:29;3.80;71.20
39325;DHT22;25037;49.488;9.900;2023-02-15T01:59:01;3.70;71.40
39325;DHT22;25037;49.488;9.900;2023-02-15T02:01:29;3.70;71.40
39325;DHT22;25037;49.488;9.900;2023-02-15T02:04:04;3.70;71.40
39325;DHT22;25037;49.488;9.900;2023-02-15T02:06:35;3.70;71.30
39325;DHT22;25037;49.488;9.900;2023-02-15T02:09:02;3.70;71.30
39325;DHT22;25037;49.488;9.900;2023-02-15T02:11:29;3.60;71.30
39325;DHT22;25037;49.488;9.900;2023-02-15T02:13:56;3.60;71.40
39325;DHT22;25037;49.488;9.900;2023-02-15T02:17:01;3.60;71.50
39325;DHT22;25037;49.488;9.900;2023-02-15T02:38:48;3.60;71.50
39325;DHT22;25037;49.488;9.900;2023-02-15T02:47:05;3.60;71.40
39325;DHT22;25037;49.488;9.900;2023-02-15T02:49:36;3.50;71.40
39325;DHT22;25037;49.488;9.900;2023-02-15T02:52:06;3.50;71.40
39325;DHT22;25037;49.488;9.900;2023-02-15T02:54:34;3.50;71.50
39325;DHT22;25037;49.488;9.900;2023-02-15T02:57:05;3.50;71.50
39325;DHT22;25037;49.488;9.900;2023-02-15T02:59:41;3.50;71.50
39325;DHT22;25037;49.488;9.900;2023-02-15T03:02:21;3.40;71.50
39325;DHT22;25037;49.488;9.900;2023-02-15T03:04:55;3.40;71.60
39325;DHT22;25037;49.488;9.900;2023-02-15T03:07:26;3.40;71.60
39325;DHT22;25037;49.488;9.900;2023-02-15T03:09:57;3.30;71.50
39325;DHT22;25037;49.488;9.900;2023-02-15T03:12:45;3.30;71.60
39325;DHT22;25037;49.488;9.900;2023-02-15T03:15:24;3.40;71.60
39325;DHT22;25037;49.488;9.900;2023-02-15T03:17:55;3.40;71.70
39325;DHT22;25037;49.488;9.900;2023-02-15T03:20:30;3.40;71.50
39325;DHT22;25037;49.488;9.900;2023-02-15T03:23:10;3.40;71.50
39325;DHT22;25037;49.488;9.900;2023-02-15T03:25:41;3.40;71.50
39325;DHT22;25037;49.488;9.900;2023-02-15T03:28:19;3.40;71.50
39325;DHT22;25037;49.488;9.900;2023-02-15T03:30:51;3.40;71.50
39325;DHT22;25037;49.488;9.900;2023-02-15T03:33:21;3.40;71.50
39325;DHT22;25037;49.488;9.900;2023-02-15T03:36:02;3.50;71.40
39325;DHT22;25037;49.488;9.900;2023-02-15T03:38:42;3.40;71.50
39325;DHT22;25037;49.488;9.900;2023-02-15T03:41:12;3.50;71.50
39325;DHT22;25037;49.488;9.900;2023-02-15T03:46:45;3.50;71.50
39325;DHT22;25037;49.488;9.900;2023-02-15T03:51:52;3.40;71.40
39325;DHT22;25037;49.488;9.900;2023-02-15T03:54:27;3.40;71.20
39325;DHT22;25037;49.488;9.900;2023-02-15T03:57:28;3.30;71.40
39325;DHT22;25037;49.488;9.900;2023-02-15T04:03:09;3.20;71.30
39325;DHT22;25037;49.488;9.900;2023-02-15T04:05:37;3.10;71.40
39325;DHT22;25037;49.488;9.900;2023-02-15T04:08:04;3.10;71.30
39325;DHT22;25037;49.488;9.900;2023-02-15T04:10:31;3.10;71.40
39325;DHT22;25037;49.488;9.900;2023-02-15T04:13:16;3.10;71.40
39325;DHT22;25037;49.488;9.900;2023-02-15T04:15:42;3.10;71.40
39325;DHT22;25037;49.488;9.900;2023-02-15T04:18:40;3.10;71.40
39325;DHT22;25037;49.488;9.900;2023-02-15T04:21:28;3.10;71.40
39325;DHT22;25037;49.488;9.900;2023-02-15T04:24:14;3.00;71.40
39325;DHT22;25037;49.488;9.900;2023-02-15T04:27:00;3.00;71.50
39325;DHT22;25037;49.488;9.900;2023-02-15T04:29:27;3.00;71.50
39325;DHT22;25037;49.488;9.900;2023-02-15T04:31:56;3.00;71.40
39325;DHT22;25037;49.488;9.900;2023-02-15T04:34:23;3.00;71.50
39325;DHT22;25037;49.488;9.900;2023-02-15T04:36:50;3.00;71.60
39325;DHT22;25037;49.488;9.900;2023-02-15T04:39:18;3.00;71.60
39325;DHT22;25037;49.488;9.900;2023-02-15T04:41:45;3.10;71.60
39325;DHT22;25037;49.488;9.900;2023-02-15T04:44:14;3.00;71.50
39325;DHT22;25037;49.488;9.900;2023-02-15T04:46:40;3.10;71.50
39325;DHT22;25037;49.488;9.900;2023-02-15T04:49:08;3.10;71.60
39325;DHT22;25037;49.488;9.900;2023-02-15T04:51:35;3.10;71.50
39325;DHT22;25037;49.488;9.900;2023-02-15T04:54:01;3.10;71.40
39325;DHT22;25037;49.488;9.900;2023-02-15T04:56:28;3.10;71.40
39325;DHT22;25037;49.488;9.900;2023-02-15T04:58:56;3.10;71.50
39325;DHT22;25037;49.488;9.900;2023-02-15T05:01:23;3.10;71.40
39325;DHT22;25037;49.488;9.900;2023-02-15T05:03:50;3.10;71.30
39325;DHT22;25037;49.488;9.900;2023-02-15T05:06:16;3.10;71.30
39325;DHT22;25037;49.488;9.900;2023-02-15T05:08:43;3.00;71.30
39325;DHT22;25037;49.488;9.900;2023-02-15T05:11:10;3.10;71.30
39325;DHT22;25037;49.488;9.900;2023-02-15T05:13:36;3.10;71.20
39325;DHT22;25037;49.488;9.900;2023-02-15T05:16:03;3.00;71.10
39325;DHT22;25037;49.488;9.900;2023-02-15T05:18:30;3.00;71.10
39325;DHT22;25037;49.488;9.900;2023-02-15T05:20:57;2.90;71.10
39325;DHT22;25037;49.488;9.900;2023-02-15T05:23:23;2.90;71.10
39325;DHT22;25037;49.488;9.900;2023-02-15T05:25:51;2.90;71.20
39325;DHT22;25037;49.488;9.900;2023-02-15T05:28:37;2.80;71.20
39325;DHT22;25037;49.488;9.900;2023-02-15T05:31:07;2.80;71.20
39325;DHT22;25037;49.488;9.900;2023-02-15T05:33:36;2.90;71.20
39325;DHT22;25037;49.488;9.900;2023-02-15T05:36:03;2.90;71.30
39325;DHT22;25037;49.488;9.900;2023-02-15T05:38:31;2.90;71.30
39325;DHT22;25037;49.488;9.900;2023-02-15T05:40:58;2.90;71.30
39325;DHT22;25037;49.488;9.900;2023-02-15T05:43:25;2.90;71.20
39325;DHT22;25037;49.488;9.900;2023-02-15T05:45:54;2.90;71.20
39325;DHT22;25037;49.488;9.900;2023-02-15T05:48:23;2.90;71.10
39325;DHT22;25037;49.488;9.900;2023-02-15T05:51:04;2.90;71.10
39325;DHT22;25037;49.488;9.900;2023-02-15T05:53:33;2.90;70.90
39325;DHT22;25037;49.488;9.900;2023-02-15T05:56:00;2.80;71.00
39325;DHT22;25037;49.488;9.900;2023-02-15T05:58:38;2.80;71.00
39325;DHT22;25037;49.488;9.900;2023-02-15T06:01:10;2.70;71.10
39325;DHT22;25037;49.488;9.900;2023-02-15T06:03:37;2.60;71.30
39325;DHT22;25037;49.488;9.900;2023-02-15T06:06:04;2.60;71.30
39325;DHT22;25037;49.488;9.900;2023-02-15T06:08:32;2.60;71.40
39325;DHT22;25037;49.488;9.900;2023-02-15T06:10:59;2.60;71.50
39325;DHT22;25037;49.488;9.900;2023-02-15T06:13:26;2.70;71.50
39325;DHT22;25037;49.488;9.900;2023-02-15T06:15:53;2.70;71.50
39325;DHT22;25037;49.488;9.900;2023-02-15T06:18:20;2.70;71.50
39325;DHT22;25037;49.488;9.900;2023-02-15T06:20:47;2.80;71.40
39325;DHT22;25037;49.488;9.900;2023-02-15T06:23:14;2.80;71.30
39325;DHT22;25037;49.488;9.900;2023-02-15T06:25:41;2.80;71.30
39325;DHT22;25037;49.488;9.900;2023-02-15T06:28:08;2.80;71.20
39325;DHT22;25037;49.488;9.900;2023-02-15T06:30:34;2.80;71.20
39325;DHT22;25037;49.488;9.900;2023-02-15T06:33:01;2.80;71.10
39325;DHT22;25037;49.488;9.900;2023-02-15T06:35:28;2.80;71.20
39325;DHT22;25037;49.488;9.900;2023-02-15T06:37:54;2.80;71.20
39325;DHT22;25037;49.488;9.900;2023-02-15T06:40:21;2.80;71.20
39325;DHT22;25037;49.488;9.900;2023-02-15T06:42:48;2.80;71.20
39325;DHT22;25037;49.488;9.900;2023-02-15T06:45:14;2.80;71.20
39325;DHT22;25037;49.488;9.900;2023-02-15T06:47:41;2.80;71.20
39325;DHT22;25037;49.488;9.900;2023-02-15T06:50:09;2.70;71.20
39325;DHT22;25037;49.488;9.900;2023-02-15T06:52:35;2.70;71.30
39325;DHT22;25037;49.488;9.900;2023-02-15T06:55:02;2.70;71.30
39325;DHT22;25037;49.488;9.900;2023-02-15T06:57:29;2.80;71.40
39325;DHT22;25037;49.488;9.900;2023-02-15T06:59:56;2.80;71.30
39325;DHT22;25037;49.488;9.900;2023-02-15T07:02:24;2.80;71.20
39325;DHT22;25037;49.488;9.900;2023-02-15T07:04:51;2.80;71.10
39325;DHT22;25037;49.488;9.900;2023-02-15T07:07:18;2.80;71.20
39325;DHT22;25037;49.488;9.900;2023-02-15T07:09:45;2.80;71.20
39325;DHT22;25037;49.488;9.900;2023-02-15T07:12:11;2.90;71.20
39325;DHT22;25037;49.488;9.900;2023-02-15T07:14:56;2.90;71.20
39325;DHT22;25037;49.488;9.900;2023-02-15T07:17:25;3.00;71.10
39325;DHT22;25037;49.488;9.900;2023-02-15T07:20:10;3.00;71.10
39325;DHT22;25037;49.488;9.900;2023-02-15T07:22:37;3.00;71.00
39325;DHT22;25037;49.488;9.900;2023-02-15T07:25:06;3.10;71.00
39325;DHT22;25037;49.488;9.900;2023-02-15T07:27:33;3.20;70.90
39325;DHT22;25037;49.488;9.900;2023-02-15T07:30:01;3.20;70.70
39325;DHT22;25037;49.488;9.900;2023-02-15T07:32:29;3.20;70.70
39325;DHT22;25037;49.488;9.900;2023-02-15T07:34:56;3.20;70.70
39325;DHT22;25037;49.488;9.900;2023-02-15T07:37:23;3.20;70.60
39325;DHT22;25037;49.488;9.900;2023-02-15T07:39:50;3.20;70.50
39325;DHT22;25037;49.488;9.900;2023-02-15T07:42:17;3.20;70.60
39325;DHT22;25037;49.488;9.900;2023-02-15T07:44:44;3.20;70.50
39325;DHT22;25037;49.488;9.900;2023-02-15T07:47:10;3.20;70.50
39325;DHT22;25037;49.488;9.900;2023-02-15T07:49:38;3.30;70.50
39325;DHT22;25037;49.488;9.900;2023-02-15T07:52:05;3.30;70.50
39325;DHT22;25037;49.488;9.900;2023-02-15T07:54:31;3.30;70.40
39325;DHT22;25037;49.488;9.900;2023-02-15T07:56:58;3.30;70.50
39325;DHT22;25037;49.488;9.900;2023-02-15T07:59:26;3.30;70.50
39325;DHT22;25037;49.488;9.900;2023-02-15T08:01:53;3.40;70.50
39325;DHT22;25037;49.488;9.900;2023-02-15T08:04:23;3.40;70.50
39325;DHT22;25037;49.488;9.900;2023-02-15T08:06:53;3.50;70.30
39325;DHT22;25037;49.488;9.900;2023-02-15T08:09:20;3.60;70.30
39325;DHT22;25037;49.488;9.900;2023-02-15T08:11:48;3.70;70.20
39325;DHT22;25037;49.488;9.900;2023-02-15T08:14:19;3.80;70.00
39325;DHT22;25037;49.488;9.900;2023-02-15T08:16:51;3.80;70.00
39325;DHT22;25037;49.488;9.900;2023-02-15T08:19:22;3.90;69.60
39325;DHT22;25037;49.488;9.900;2023-02-15T08:21:52;3.90;69.40
39325;DHT22;25037;49.488;9.900;2023-02-15T08:24:21;4.00;69.60
39325;DHT22;25037;49.488;9.900;2023-02-15T08:26:49;4.10;69.40
39325;DHT22;25037;49.488;9.900;2023-02-15T08:29:18;4.20;69.20
39325;DHT22;25037;49.488;9.900;2023-02-15T08:31:45;4.20;69.00
39325;DHT22;25037;49.488;9.900;2023-02-15T08:34:15;4.20;69.00
39325;DHT22;25037;49.488;9.900;2023-02-15T08:36:43;4.30;69.00
39325;DHT22;25037;49.488;9.900;2023-02-15T08:39:12;4.30;68.90
39325;DHT22;25037;49.488;9.900;2023-02-15T08:41:42;4.30;68.80
39325;DHT22;25037;49.488;9.900;2023-02-15T08:44:09;4.40;68.60
39325;DHT22;25037;49.488;9.900;2023-02-15T08:46:40;4.40;68.60
39325;DHT22;25037;49.488;9.900;2023-02-15T08:49:08;4.50;68.60
39325;DHT22;25037;49.488;9.900;2023-02-15T08:51:37;4.50;68.50
39325;DHT22;25037;49.488;9.900;2023-02-15T08:54:10;4.50;68.40
39325;DHT22;25037;49.488;9.900;2023-02-15T08:56:40;4.50;68.40
39325;DHT22;25037;49.488;9.900;2023-02-15T08:59:15;4.50;68.40
39325;DHT22;25037;49.488;9.900;2023-02-15T09:01:43;4.70;68.40
39325;DHT22;25037;49.488;9.900;2023-02-15T09:04:10;4.80;68.20
39325;DHT22;25037;49.488;9.900;2023-02-15T09:06:38;4.80;68.00
39325;DHT22;25037;49.488;9.900;2023-02-15T09:09:05;5.00;67.90
39325;DHT22;25037;49.488;9.900;2023-02-15T09:11:36;5.10;67.70
39325;DHT22;25037;49.488;9.900;2023-02-15T09:14:11;5.20;67.60
39325;DHT22;25037;49.488;9.900;2023-02-15T09:16:41;5.30;67.30
39325;DHT22;25037;49.488;9.900;2023-02-15T09:19:08;5.40;67.20
39325;DHT22;25037;49.488;9.900;2023-02-15T09:21:36;5.40;67.10
39325;DHT22;25037;49.488;9.900;2023-02-15T09:24:06;5.50;66.90
39325;DHT22;25037;49.488;9.900;2023-02-15T09:26:36;5.50;66.60
39325;DHT22;25037;49.488;9.900;2023-02-15T09:29:03;5.60;66.70
39325;DHT22;25037;49.488;9.900;2023-02-15T09:31:36;5.70;66.60
39325;DHT22;25037;49.488;9.900;2023-02-15T09:34:03;5.70;66.40
39325;DHT22;25037;49.488;9.900;2023-02-15T09:36:38;5.80;66.20
39325;DHT22;25037;49.488;9.900;2023-02-15T09:39:12;5.80;65.80
39325;DHT22;25037;49.488;9.900;2023-02-15T10:09:35;6.70;64.20
39325;DHT22;25037;49.488;9.900;2023-02-15T10:15:17;6.90;63.90
39325;DHT22;25037;49.488;9.900;2023-02-15T10:20:56;7.10;63.20
39325;DHT22;25037;49.488;9.900;2023-02-15T10:29:18;7.50;62.90
39325;DHT22;25037;49.488;9.900;2023-02-15T10:32:16;7.60;62.50
39325;DHT22;25037;49.488;9.900;2023-02-15T10:37:44;8.00;62.00
39325;DHT22;25037;49.488;9.900;2023-02-15T10:45:59;8.60;61.00
39325;DHT22;25037;49.488;9.900;2023-02-15T10:51:25;8.70;60.60
39325;DHT22;25037;49.488;9.900;2023-02-15T10:54:09;8.80;60.30
39325;DHT22;25037;49.488;9.900;2023-02-15T10:59:48;8.90;60.30
39325;DHT22;25037;49.488;9.900;2023-02-15T11:05:45;9.10;59.60
39325;DHT22;25037;49.488;9.900;2023-02-15T11:08:19;9.20;59.70
39325;DHT22;25037;49.488;9.900;2023-02-15T11:10:55;9.20;59.70
39325;DHT22;25037;49.488;9.900;2023-02-15T11:13:26;9.40;59.30
39325;DHT22;25037;49.488;9.900;2023-02-15T11:16:01;9.30;59.10
39325;DHT22;25037;49.488;9.900;2023-02-15T11:18:36;9.30;59.00
39325;DHT22;25037;49.488;9.900;2023-02-15T11:21:22;9.30;59.30
39325;DHT22;25037;49.488;9.900;2023-02-15T11:23:51;9.30;59.10
39325;DHT22;25037;49.488;9.900;2023-02-15T11:29:32;9.20;59.20
39325;DHT22;25037;49.488;9.900;2023-02-15T11:35:20;9.30;59.70
39325;DHT22;25037;49.488;9.900;2023-02-15T11:38:18;9.40;59.40
39325;DHT22;25037;49.488;9.900;2023-02-15T11:40:58;9.50;59.20
39325;DHT22;25037;49.488;9.900;2023-02-15T11:46:24;9.40;59.10
39325;DHT22;25037;49.488;9.900;2023-02-15T11:48:51;9.40;59.50
39325;DHT22;25037;49.488;9.900;2023-02-15T11:51:20;9.40;59.60
39325;DHT22;25037;49.488;9.900;2023-02-15T11:53:50;9.40;59.50
39325;DHT22;25037;49.488;9.900;2023-02-15T11:56:20;9.50;59.60
39325;DHT22;25037;49.488;9.900;2023-02-15T12:01:24;9.50;59.30
39325;DHT22;25037;49.488;9.900;2023-02-15T12:04:06;9.60;59.20
39325;DHT22;25037;49.488;9.900;2023-02-15T12:06:37;9.60;59.10
39325;DHT22;25037;49.488;9.900;2023-02-15T12:11:38;9.70;59.20
39325;DHT22;25037;49.488;9.900;2023-02-15T12:14:08;9.70;59.20
39325;DHT22;25037;49.488;9.900;2023-02-15T12:16:47;9.80;59.10
39325;DHT22;25037;49.488;9.900;2023-02-15T12:19:24;9.80;59.00
39325;DHT22;25037;49.488;9.900;2023-02-15T12:21:53;9.90;58.80
39325;DHT22;25037;49.488;9.900;2023-02-15T12:24:42;9.90;59.10
39325;DHT22;25037;49.488;9.900;2023-02-15T12:27:17;10.00;58.90
39325;DHT22;25037;49.488;9.900;2023-02-15T12:29:53;10.00;58.90
39325;DHT22;25037;49.488;9.900;2023-02-15T12:32:31;10.10;58.60
39325;DHT22;25037;49.488;9.900;2023-02-15T12:35:06;10.20;58.60
39325;DHT22;25037;49.488;9.900;2023-02-15T12:37:33;10.20;58.60
39325;DHT22;25037;49.488;9.900;2023-02-15T12:40:17;10.20;58.40
39325;DHT22;25037;49.488;9.900;2023-02-15T12:42:44;10.30;58.40
39325;DHT22;25037;49.488;9.900;2023-02-15T12:45:28;10.30;58.70
39325;DHT22;25037;49.488;9.900;2023-02-15T12:48:18;10.40;58.40
39325;DHT22;25037;49.488;9.900;2023-02-15T12:50:48;10.40;58.30
39325;DHT22;25037;49.488;9.900;2023-02-15T12:53:23;10.40;58.40
39325;DHT22;25037;49.488;9.900;2023-02-15T12:55:58;10.40;58.30
39325;DHT22;25037;49.488;9.900;2023-02-15T12:58:27;10.40;58.40
39325;DHT22;25037;49.488;9.900;2023-02-15T13:01:12;10.40;58.40
39325;DHT22;25037;49.488;9.900;2023-02-15T13:03:58;10.50;58.30
39325;DHT22;25037;49.488;9.900;2023-02-15T13:06:26;10.50;58.40
39325;DHT22;25037;49.488;9.900;2023-02-15T13:08:59;10.60;58.40
39325;DHT22;25037;49.488;9.900;2023-02-15T13:11:32;10.70;58.00
39325;DHT22;25037;49.488;9.900;2023-02-15T13:14:03;10.70;58.00
39325;DHT22;25037;49.488;9.900;2023-02-15T13:16:33;10.70;58.00
39325;DHT22;25037;49.488;9.900;2023-02-15T13:19:11;10.70;57.90
39325;DHT22;25037;49.488;9.900;2023-02-15T13:21:41;10.70;57.90
39325;DHT22;25037;49.488;9.900;2023-02-15T13:24:25;10.80;58.10
39325;DHT22;25037;49.488;9.900;2023-02-15T13:26:55;10.90;58.00
39325;DHT22;25037;49.488;9.900;2023-02-15T13:29:39;10.90;57.90
39325;DHT22;25037;49.488;9.900;2023-02-15T13:32:33;11.00;57.80
39325;DHT22;25037;49.488;9.900;2023-02-15T13:35:04;11.10;57.50
39325;DHT22;25037;49.488;9.900;2023-02-15T13:43:15;11.20;57.40
39325;DHT22;25037;49.488;9.900;2023-02-15T13:54:25;11.30;57.10
39325;DHT22;25037;49.488;9.900;2023-02-15T14:00:10;11.30;57.10
39325;DHT22;25037;49.488;9.900;2023-02-15T14:03:04;11.30;57.50
39325;DHT22;25037;49.488;9.900;2023-02-15T14:08:43;11.30;57.50
39325;DHT22;25037;49.488;9.900;2023-02-15T14:19:43;11.20;57.90
39325;DHT22;25037;49.488;9.900;2023-02-15T14:22:22;11.10;57.90
39325;DHT22;25037;49.488;9.900;2023-02-15T14:25:22;11.00;58.10
39325;DHT22;25037;49.488;9.900;2023-02-15T14:30:44;11.00;58.20
39325;DHT22;25037;49.488;9.900;2023-02-15T14:35:43;10.90;58.50
39325;DHT22;25037;49.488;9.900;2023-02-15T14:38:36;10.80;58.60
39325;DHT22;25037;49.488;9.900;2023-02-15T14:43:44;10.80;58.70
39325;DHT22;25037;49.488;9.900;2023-02-15T14:48:53;10.70;59.20
39325;DHT22;25037;49.488;9.900;2023-02-15T14:54:07;10.80;59.40
39325;DHT22;25037;49.488;9.900;2023-02-15T14:56:34;10.70;59.30
39325;DHT22;25037;49.488;9.900;2023-02-15T14:59:21;10.70;59.40
39325;DHT22;25037;49.488;9.900;2023-02-15T15:02:03;10.70;59.50
39325;DHT22;25037;49.488;9.900;2023-02-15T15:04:42;10.70;59.60
39325;DHT22;25037;49.488;9.900;2023-02-15T15:07:36;10.60;59.70
39325;DHT22;25037;49.488;9.900;2023-02-15T15:10:34;10.60;59.90
39325;DHT22;25037;49.488;9.900;2023-02-15T15:16:31;10.50;60.00
39325;DHT22;25037;49.488;9.900;2023-02-15T15:18:58;10.50;60.10
39325;DHT22;25037;49.488;9.900;2023-02-15T15:30:46;10.20;60.80
39325;DHT22;25037;49.488;9.900;2023-02-15T15:33:26;10.10;61.00
39325;DHT22;25037;49.488;9.900;2023-02-15T15:36:21;10.00;61.30
39325;DHT22;25037;49.488;9.900;2023-02-15T15:39:25;9.90;61.50
39325;DHT22;25037;49.488;9.900;2023-02-15T15:48:29;9.50;62.30
39325;DHT22;25037;49.488;9.900;2023-02-15T15:50:59;9.30;62.70
39325;DHT22;25037;49.488;9.900;2023-02-15T15:53:29;9.10;63.10
39325;DHT22;25037;49.488;9.900;2023-02-15T15:56:06;9.00;63.40
39325;DHT22;25037;49.488;9.900;2023-02-15T15:58:34;8.80;63.90
39325;DHT22;25037;49.488;9.900;2023-02-15T16:01:09;8.70;64.10
39325;DHT22;25037;49.488;9.900;2023-02-15T16:03:37;8.60;64.40
39325;DHT22;25037;49.488;9.900;2023-02-15T16:06:04;8.50;64.40
39325;DHT22;25037;49.488;9.900;2023-02-15T16:08:37;8.40;64.40
39325;DHT22;25037;49.488;9.900;2023-02-15T16:11:15;8.40;64.60
39325;DHT22;25037;49.488;9.900;2023-02-15T16:13:43;8.40;64.60
39325;DHT22;25037;49.488;9.900;2023-02-15T16:16:12;8.30;64.60
39325;DHT22;25037;49.488;9.900;2023-02-15T16:18:39;8.20;64.70
39325;DHT22;25037;49.488;9.900;2023-02-15T16:21:18;8.10;64.80
39325;DHT22;25037;49.488;9.900;2023-02-15T16:24:22;8.00;65.00
39325;DHT22;25037;49.488;9.900;2023-02-15T16:27:13;7.90;65.10
39325;DHT22;25037;49.488;9.900;2023-02-15T16:29:42;7.80;65.30
39325;DHT22;25037;49.488;9.900;2023-02-15T16:32:20;7.70;65.30
39325;DHT22;25037;49.488;9.900;2023-02-15T16:34:55;7.60;65.60
39325;DHT22;25037;49.488;9.900;2023-02-15T16:37:25;7.50;65.70
39325;DHT22;25037;49.488;9.900;2023-02-15T16:39:55;7.40;65.80
39325;DHT22;25037;49.488;9.900;2023-02-15T16:42:22;7.30;65.90
39325;DHT22;25037;49.488;9.900;2023-02-15T16:44:55;7.20;66.00
39325;DHT22;25037;49.488;9.900;2023-02-15T16:47:27;7.10;66.20
39325;DHT22;25037;49.488;9.900;2023-02-15T16:49:58;7.00;66.30
39325;DHT22;25037;49.488;9.900;2023-02-15T16:52:26;6.90;66.40
39325;DHT22;25037;49.488;9.900;2023-02-15T16:55:05;6.80;66.50
39325;DHT22;25037;49.488;9.900;2023-02-15T16:57:35;6.80;66.80
39325;DHT22;25037;49.488;9.900;2023-02-15T17:00:14;6.70;66.80
39325;DHT22;25037;49.488;9.900;2023-02-15T17:03:03;6.60;67.00
39325;DHT22;25037;49.488;9.900;2023-02-15T17:13:27;6.30;67.30
39325;DHT22;25037;49.488;9.900;2023-02-15T17:18:30;6.10;67.40
39325;DHT22;25037;49.488;9.900;2023-02-15T17:21:00;6.10;67.30
39325;DHT22;25037;49.488;9.900;2023-02-15T17:23:39;6.10;67.30
39325;DHT22;25037;49.488;9.900;2023-02-15T17:26:18;6.10;67.40
39325;DHT22;25037;49.488;9.900;2023-02-15T17:28:58;6.00;67.40
39325;DHT22;25037;49.488;9.900;2023-02-15T17:31:30;6.00;67.30
39325;DHT22;25037;49.488;9.900;2023-02-15T17:33:59;5.90;67.30
39325;DHT22;25037;49.488;9.900;2023-02-15T17:36:28;5.80;67.30
39325;DHT22;25037;49.488;9.900;2023-02-15T17:38:59;5.80;67.40
39325;DHT22;25037;49.488;9.900;2023-02-15T17:41:29;5.70;67.50
39325;DHT22;25037;49.488;9.900;2023-02-15T17:43:56;5.60;67.50
39325;DHT22;25037;49.488;9.900;2023-02-15T17:46:23;5.50;67.60
39325;DHT22;25037;49.488;9.900;2023-02-15T17:48:52;5.40;67.80
39325;DHT22;25037;49.488;9.900;2023-02-15T17:51:21;5.40;67.90
39325;DHT22;25037;49.488;9.900;2023-02-15T17:53:48;5.30;67.90
39325;DHT22;25037;49.488;9.900;2023-02-15T17:56:36;5.20;68.00
39325;DHT22;25037;49.488;9.900;2023-02-15T17:59:04;5.00;68.10
39325;DHT22;25037;49.488;9.900;2023-02-15T18:01:34;5.00;68.10
39325;DHT22;25037;49.488;9.900;2023-02-15T18:04:21;4.90;68.30
39325;DHT22;25037;49.488;9.900;2023-02-15T18:07:09;4.80;68.40
39325;DHT22;25037;49.488;9.900;2023-02-15T18:09:55;4.70;68.50
39325;DHT22;25037;49.488;9.900;2023-02-15T18:12:40;4.50;68.60
39325;DHT22;25037;49.488;9.900;2023-02-15T18:15:08;4.50;68.70
39325;DHT22;25037;49.488;9.900;2023-02-15T18:17:45;4.40;68.80
39325;DHT22;25037;49.488;9.900;2023-02-15T18:20:25;4.30;68.90
39325;DHT22;25037;49.488;9.900;2023-02-15T18:22:54;4.20;69.20
39325;DHT22;25037;49.488;9.900;2023-02-15T18:25:21;4.10;69.10
39325;DHT22;25037;49.488;9.900;2023-02-15T18:27:51;4.00;69.20
39325;DHT22;25037;49.488;9.900;2023-02-15T18:30:22;4.00;69.30
39325;DHT22;25037;49.488;9.900;2023-02-15T18:32:51;3.90;69.40
39325;DHT22;25037;49.488;9.900;2023-02-15T18:35:21;3.80;69.50
39325;DHT22;25037;49.488;9.900;2023-02-15T18:37:51;3.80;69.50
39325;DHT22;25037;49.488;9.900;2023-02-15T18:40:24;3.80;69.60
39325;DHT22;25037;49.488;9.900;2023-02-15T18:42:51;3.70;69.70
39325;DHT22;25037;49.488;9.900;2023-02-15T18:47:48;3.60;69.70
39325;DHT22;25037;49.488;9.900;2023-02-15T18:50:17;3.50;69.70
39325;DHT22;25037;49.488;9.900;2023-02-15T18:52:46;3.50;69.80
39325;DHT22;25037;49.488;9.900;2023-02-15T18:55:19;3.50;69.90
39325;DHT22;25037;49.488;9.900;2023-02-15T18:57:46;3.50;70.00
39325;DHT22;25037;49.488;9.900;2023-02-15T19:00:18;3.40;69.90
39325;DHT22;25037;49.488;9.900;2023-02-15T19:02:45;3.40;70.00
39325;DHT22;25037;49.488;9.900;2023-02-15T19:05:12;3.40;69.90
39325;DHT22;25037;49.488;9.900;2023-02-15T19:07:40;3.30;69.90
39325;DHT22;25037;49.488;9.900;2023-02-15T19:10:16;3.30;69.90
39325;DHT22;25037;49.488;9.900;2023-02-15T19:12:43;3.20;70.00
39325;DHT22;25037;49.488;9.900;2023-02-15T19:15:15;3.20;69.90
39325;DHT22;25037;49.488;9.900;2023-02-15T19:17:42;3.10;70.00